createdAt,value
2014-08-01T00:00:02.092Z,99425
2014-08-01T00:00:20.295Z,99428
2014-08-01T00:00:38.529Z,99430
2014-08-01T00:00:56.750Z,99428
2014-08-01T00:01:15.000Z,99436
2014-08-01T00:01:33.203Z,99430
2014-08-01T00:01:51.438Z,99422
2014-08-01T00:02:09.658Z,99428
2014-08-01T00:02:27.908Z,99430
2014-08-01T00:02:46.143Z,99433
2014-08-01T00:03:04.348Z,99430
2014-08-01T00:03:22.582Z,99433
2014-08-01T00:03:40.817Z,99433
2014-08-01T00:03:59.020Z,99436
2014-08-01T00:04:17.257Z,99433
2014-08-01T00:04:35.491Z,99430
2014-08-01T00:04:53.726Z,99433
2014-08-01T00:05:11.946Z,99433
2014-08-01T00:05:30.180Z,99428
2014-08-01T00:05:48.430Z,99428
2014-08-01T00:06:20.792Z,99433
2014-08-01T00:06:39.027Z,99425
2014-08-01T00:06:57.277Z,99433
2014-08-01T00:07:15.495Z,99430
2014-08-01T00:07:33.701Z,99433
2014-08-01T00:07:51.919Z,99433
2014-08-01T00:08:10.138Z,99433
2014-08-01T00:08:28.406Z,99428
2014-08-01T00:08:46.624Z,99425
2014-08-01T00:09:04.859Z,99430
2014-08-01T00:09:23.078Z,99425
2014-08-01T00:09:55.470Z,99428
2014-08-01T00:10:13.658Z,99428
2014-08-01T00:10:31.908Z,99422
2014-08-01T00:10:50.097Z,99422
2014-08-01T00:11:08.347Z,99425
2014-08-01T00:11:26.582Z,99419
2014-08-01T00:11:44.785Z,99413
2014-08-01T00:12:03.005Z,99425
2014-08-01T00:12:21.255Z,99422
2014-08-01T00:12:39.490Z,99416
2014-08-01T00:12:57.695Z,99430
2014-08-01T00:13:15.914Z,99419
2014-08-01T00:13:34.164Z,99428
2014-08-01T00:13:52.382Z,99433
2014-08-01T00:14:10.619Z,99419
2014-08-01T00:14:28.838Z,99428
2014-08-01T00:14:47.088Z,99419
2014-08-01T00:15:05.308Z,99419
2014-08-01T00:15:23.496Z,99419
2014-08-01T00:15:41.746Z,99428
2014-08-01T00:15:59.965Z,99428
2014-08-01T00:16:18.185Z,99416
2014-08-01T00:16:36.388Z,99422
2014-08-01T00:16:54.654Z,99419
2014-08-01T00:17:12.923Z,99422
2014-08-01T00:17:31.141Z,99416
2014-08-01T00:17:49.345Z,99416
2014-08-01T00:18:07.563Z,99416
2014-08-01T00:18:25.814Z,99419
2014-08-01T00:18:44.033Z,99419
2014-08-01T00:19:02.252Z,99425
2014-08-01T00:19:20.473Z,99422
2014-08-01T00:19:38.707Z,99413
2014-08-01T00:19:56.988Z,99419
2014-08-01T00:20:15.191Z,99419
2014-08-01T00:20:33.444Z,99422
2014-08-01T00:20:51.647Z,99416
2014-08-01T00:21:09.897Z,99416
2014-08-01T00:21:28.117Z,99419
2014-08-01T00:21:46.367Z,99419
2014-08-01T00:22:04.539Z,99413
2014-08-01T00:22:22.773Z,99419
2014-08-01T00:22:41.010Z,99416
2014-08-01T00:22:59.244Z,99416
2014-08-01T00:23:17.447Z,99407
2014-08-01T00:23:35.685Z,99419
2014-08-01T00:23:53.903Z,99413
2014-08-01T00:24:12.138Z,99407
2014-08-01T00:24:30.372Z,99413
2014-08-01T00:24:48.576Z,99416
2014-08-01T00:25:06.811Z,99419
2014-08-01T00:25:25.029Z,99416
2014-08-01T00:25:43.251Z,99419
2014-08-01T00:26:01.532Z,99422
2014-08-01T00:26:19.782Z,99410
2014-08-01T00:26:38.001Z,99413
2014-08-01T00:26:56.206Z,99419
2014-08-01T00:27:46.833Z,99413
2014-08-01T00:28:05.083Z,99401
2014-08-01T00:28:23.302Z,99407
2014-08-01T00:28:41.521Z,99413
2014-08-01T00:28:59.773Z,99413
2014-08-01T00:29:18.007Z,99407
2014-08-01T00:29:36.226Z,99410
2014-08-01T00:29:54.431Z,99407
2014-08-01T00:30:12.681Z,99410
2014-08-01T00:30:30.884Z,99416
2014-08-01T00:30:49.103Z,99410
2014-08-01T00:31:07.355Z,99407
2014-08-01T00:31:25.558Z,99416
2014-08-01T00:31:43.808Z,99401
2014-08-01T00:32:02.044Z,99404
2014-08-01T00:32:20.248Z,99416
2014-08-01T00:32:38.466Z,99401
2014-08-01T00:32:56.701Z,99401
2014-08-01T00:33:14.937Z,99401
2014-08-01T00:33:33.140Z,99410
2014-08-01T00:33:51.375Z,99410
2014-08-01T00:34:09.595Z,99399
2014-08-01T00:34:27.845Z,99401
2014-08-01T00:34:46.048Z,99413
2014-08-01T00:35:04.267Z,99413
2014-08-01T00:35:22.519Z,99404
2014-08-01T00:35:40.754Z,99410
2014-08-01T00:35:58.988Z,99419
2014-08-01T00:36:17.224Z,99401
2014-08-01T00:36:35.552Z,99410
2014-08-01T00:36:53.802Z,99416
2014-08-01T00:37:11.990Z,99401
2014-08-01T00:37:30.211Z,99404
2014-08-01T00:37:48.429Z,99410
2014-08-01T00:38:06.695Z,99399
2014-08-01T00:38:24.900Z,99402
2014-08-01T00:38:43.135Z,99399
2014-08-01T00:39:01.369Z,99404
2014-08-01T00:39:19.572Z,99416
2014-08-01T00:39:37.808Z,99396
2014-08-01T00:39:56.043Z,99410
2014-08-01T00:40:14.277Z,99410
2014-08-01T00:40:32.514Z,99407
2014-08-01T00:40:50.701Z,99407
2014-08-01T00:41:08.951Z,99402
2014-08-01T00:41:27.185Z,99402
2014-08-01T00:41:45.422Z,99399
2014-08-01T00:42:03.625Z,99407
2014-08-01T00:42:21.844Z,99407
2014-08-01T00:42:40.081Z,99404
2014-08-01T00:42:58.315Z,99404
2014-08-01T00:43:16.519Z,99407
2014-08-01T00:43:34.737Z,99407
2014-08-01T00:43:52.989Z,99407
2014-08-01T00:44:11.192Z,99404
2014-08-01T00:44:29.427Z,99410
2014-08-01T00:44:47.647Z,99402
2014-08-01T00:45:05.881Z,99407
2014-08-01T00:45:24.115Z,99402
2014-08-01T00:45:42.303Z,99407
2014-08-01T00:46:00.540Z,99413
2014-08-01T00:46:18.790Z,99404
2014-08-01T00:46:37.009Z,99410
2014-08-01T00:46:55.213Z,99416
2014-08-01T00:47:13.463Z,99402
2014-08-01T00:47:31.682Z,99413
2014-08-01T00:47:49.932Z,99402
2014-08-01T00:48:08.185Z,99407
2014-08-01T00:48:26.372Z,99407
2014-08-01T00:48:44.622Z,99407
2014-08-01T00:49:02.843Z,99410
2014-08-01T00:49:21.046Z,99402
2014-08-01T00:49:39.281Z,99410
2014-08-01T00:49:57.531Z,99396
2014-08-01T00:50:15.750Z,99410
2014-08-01T00:50:48.110Z,99410
2014-08-01T00:51:06.347Z,99407
2014-08-01T00:51:24.597Z,99399
2014-08-01T00:51:42.941Z,99399
2014-08-01T00:52:01.175Z,99399
2014-08-01T00:52:19.379Z,99405
2014-08-01T00:52:51.754Z,99410
2014-08-01T00:53:09.991Z,99399
2014-08-01T00:53:28.209Z,99413
2014-08-01T00:53:46.428Z,99407
2014-08-01T00:54:04.678Z,99399
2014-08-01T00:54:22.899Z,99410
2014-08-01T00:54:41.086Z,99407
2014-08-01T00:54:59.321Z,99405
2014-08-01T00:55:17.557Z,99402
2014-08-01T00:55:35.760Z,99399
2014-08-01T00:55:53.995Z,99402
2014-08-01T00:56:12.229Z,99410
2014-08-01T00:56:30.435Z,99399
2014-08-01T00:56:48.685Z,99399
2014-08-01T00:57:06.888Z,99399
2014-08-01T00:57:25.140Z,99410
2014-08-01T00:57:43.359Z,99402
2014-08-01T00:58:01.578Z,99402
2014-08-01T00:58:19.781Z,99402
2014-08-01T00:58:38.017Z,99408
2014-08-01T00:58:56.283Z,99410
2014-08-01T00:59:14.470Z,99399
2014-08-01T00:59:32.722Z,99396
2014-08-01T00:59:50.941Z,99396
2014-08-01T01:00:09.160Z,99387
2014-08-01T01:00:27.410Z,99399
2014-08-01T01:00:45.614Z,99393
2014-08-01T01:01:03.864Z,99393
2014-08-01T01:01:22.067Z,99387
2014-08-01T01:01:40.319Z,99393
2014-08-01T01:01:58.522Z,99387
2014-08-01T01:02:16.772Z,99390
2014-08-01T01:02:35.007Z,99390
2014-08-01T01:02:53.259Z,99390
2014-08-01T01:03:11.477Z,99390
2014-08-01T01:03:29.681Z,99387
2014-08-01T01:03:47.902Z,99387
2014-08-01T01:04:06.168Z,99393
2014-08-01T01:04:24.387Z,99393
2014-08-01T01:04:42.605Z,99393
2014-08-01T01:05:00.811Z,99399
2014-08-01T01:05:19.029Z,99399
2014-08-01T01:05:37.248Z,99399
2014-08-01T01:05:55.484Z,99393
2014-08-01T01:06:13.734Z,99390
2014-08-01T01:06:31.953Z,99393
2014-08-01T01:06:50.172Z,99387
2014-08-01T01:07:08.392Z,99393
2014-08-01T01:07:26.626Z,99381
2014-08-01T01:07:44.845Z,99390
2014-08-01T01:08:03.067Z,99393
2014-08-01T01:08:21.285Z,99384
2014-08-01T01:08:39.535Z,99381
2014-08-01T01:08:57.738Z,99390
2014-08-01T01:09:15.990Z,99387
2014-08-01T01:09:34.209Z,99399
2014-08-01T01:09:52.412Z,99399
2014-08-01T01:10:10.664Z,99399
2014-08-01T01:10:28.883Z,99384
2014-08-01T01:10:47.102Z,99390
2014-08-01T01:11:05.352Z,99399
2014-08-01T01:11:23.557Z,99387
2014-08-01T01:11:41.901Z,99393
2014-08-01T01:12:00.119Z,99387
2014-08-01T01:12:18.309Z,99390
2014-08-01T01:12:36.543Z,99376
2014-08-01T01:12:54.793Z,99390
2014-08-01T01:13:13.012Z,99396
2014-08-01T01:13:31.218Z,99390
2014-08-01T01:13:49.453Z,99387
2014-08-01T01:14:07.671Z,99387
2014-08-01T01:14:25.939Z,99387
2014-08-01T01:14:44.158Z,99379
2014-08-01T01:15:02.361Z,99393
2014-08-01T01:15:20.611Z,99387
2014-08-01T01:15:38.815Z,99390
2014-08-01T01:15:57.049Z,99382
2014-08-01T01:16:15.268Z,99387
2014-08-01T01:16:33.520Z,99379
2014-08-01T01:16:51.739Z,99387
2014-08-01T01:17:09.942Z,99379
2014-08-01T01:17:28.161Z,99387
2014-08-01T01:17:46.413Z,99379
2014-08-01T01:18:04.647Z,99387
2014-08-01T01:18:22.850Z,99384
2014-08-01T01:18:41.071Z,99390
2014-08-01T01:18:59.337Z,99379
2014-08-01T01:19:17.571Z,99382
2014-08-01T01:19:35.774Z,99390
2014-08-01T01:19:54.026Z,99390
2014-08-01T01:20:12.245Z,99385
2014-08-01T01:20:30.495Z,99385
2014-08-01T01:20:48.700Z,99382
2014-08-01T01:21:06.934Z,99396
2014-08-01T01:21:25.169Z,99376
2014-08-01T01:21:43.356Z,99393
2014-08-01T01:22:01.578Z,99385
2014-08-01T01:22:19.812Z,99382
2014-08-01T01:22:38.047Z,99387
2014-08-01T01:22:56.283Z,99390
2014-08-01T01:23:14.486Z,99387
2014-08-01T01:23:32.736Z,99393
2014-08-01T01:23:50.971Z,99390
2014-08-01T01:24:09.175Z,99387
2014-08-01T01:24:27.393Z,99393
2014-08-01T01:24:45.643Z,99396
2014-08-01T01:25:03.849Z,99393
2014-08-01T01:25:22.083Z,99387
2014-08-01T01:25:40.317Z,99387
2014-08-01T01:25:58.630Z,99396
2014-08-01T01:26:16.852Z,99382
2014-08-01T01:26:35.070Z,99382
2014-08-01T01:26:53.320Z,99393
2014-08-01T01:27:11.541Z,99393
2014-08-01T01:27:29.775Z,99385
2014-08-01T01:27:48.010Z,99382
2014-08-01T01:28:06.213Z,99393
2014-08-01T01:28:24.434Z,99379
2014-08-01T01:28:42.637Z,99376
2014-08-01T01:29:00.887Z,99379
2014-08-01T01:29:19.092Z,99376
2014-08-01T01:29:37.358Z,99393
2014-08-01T01:29:55.561Z,99382
2014-08-01T01:30:13.779Z,99396
2014-08-01T01:30:32.031Z,99382
2014-08-01T01:31:22.642Z,99373
2014-08-01T01:31:40.829Z,99382
2014-08-01T01:31:59.048Z,99382
2014-08-01T01:32:17.314Z,99390
2014-08-01T01:32:35.535Z,99382
2014-08-01T01:32:53.754Z,99382
2014-08-01T01:33:11.973Z,99385
2014-08-01T01:33:30.225Z,99379
2014-08-01T01:33:48.428Z,99376
2014-08-01T01:34:06.662Z,99385
2014-08-01T01:34:24.897Z,99379
2014-08-01T01:34:43.085Z,99379
2014-08-01T01:35:01.335Z,99382
2014-08-01T01:35:19.538Z,99373
2014-08-01T01:35:37.776Z,99379
2014-08-01T01:35:56.026Z,99385
2014-08-01T01:36:14.260Z,99385
2014-08-01T01:36:32.432Z,99376
2014-08-01T01:36:50.668Z,99382
2014-08-01T01:37:08.918Z,99382
2014-08-01T01:37:27.153Z,99382
2014-08-01T01:37:45.389Z,99373
2014-08-01T01:38:03.592Z,99382
2014-08-01T01:38:21.827Z,99388
2014-08-01T01:38:40.077Z,99382
2014-08-01T01:38:58.282Z,99385
2014-08-01T01:39:16.547Z,99382
2014-08-01T01:39:34.766Z,99382
2014-08-01T01:39:52.987Z,99376
2014-08-01T01:40:11.190Z,99390
2014-08-01T01:40:29.424Z,99373
2014-08-01T01:40:47.659Z,99382
2014-08-01T01:41:05.895Z,99382
2014-08-01T01:41:24.098Z,99382
2014-08-01T01:41:42.317Z,99379
2014-08-01T01:42:00.570Z,99385
2014-08-01T01:42:18.804Z,99370
2014-08-01T01:42:37.008Z,99373
2014-08-01T01:42:55.226Z,99376
2014-08-01T01:43:13.447Z,99382
2014-08-01T01:43:31.681Z,99376
2014-08-01T01:43:49.900Z,99376
2014-08-01T01:44:08.120Z,99379
2014-08-01T01:44:26.386Z,99388
2014-08-01T01:44:44.620Z,99382
2014-08-01T01:45:02.839Z,99379
2014-08-01T01:45:35.216Z,99385
2014-08-01T01:45:53.450Z,99382
2014-08-01T01:46:11.700Z,99379
2014-08-01T01:46:29.922Z,99379
2014-08-01T01:46:48.141Z,99382
2014-08-01T01:47:06.359Z,99370
2014-08-01T01:47:24.609Z,99376
2014-08-01T01:47:42.846Z,99364
2014-08-01T01:48:01.080Z,99379
2014-08-01T01:48:33.504Z,99382
2014-08-01T01:48:51.723Z,99379
2014-08-01T01:49:09.988Z,99382
2014-08-01T01:49:28.207Z,99382
2014-08-01T01:50:00.568Z,99376
2014-08-01T01:50:18.787Z,99376
2014-08-01T01:50:37.006Z,99376
2014-08-01T01:50:55.259Z,99370
2014-08-01T01:51:13.493Z,99379
2014-08-01T01:51:31.712Z,99382
2014-08-01T01:51:49.900Z,99388
2014-08-01T01:52:08.136Z,99379
2014-08-01T01:52:26.386Z,99385
2014-08-01T01:52:44.620Z,99376
2014-08-01T01:53:02.825Z,99379
2014-08-01T01:53:21.044Z,99379
2014-08-01T01:53:39.294Z,99382
2014-08-01T01:53:57.482Z,99376
2014-08-01T01:54:15.734Z,99382
2014-08-01T01:54:33.952Z,99393
2014-08-01T01:54:52.187Z,99373
2014-08-01T01:55:10.391Z,99379
2014-08-01T01:55:28.610Z,99379
2014-08-01T01:55:46.875Z,99370
2014-08-01T01:56:05.094Z,99376
2014-08-01T01:56:23.300Z,99388
2014-08-01T01:56:41.550Z,99364
2014-08-01T01:56:59.753Z,99376
2014-08-01T01:57:17.990Z,99379
2014-08-01T01:57:36.224Z,99376
2014-08-01T01:57:54.458Z,99370
2014-08-01T01:58:12.677Z,99382
2014-08-01T01:58:30.881Z,99376
2014-08-01T01:58:49.116Z,99376
2014-08-01T01:59:07.366Z,99376
2014-08-01T01:59:25.587Z,99382
2014-08-01T01:59:43.791Z,99376
2014-08-01T02:00:02.056Z,99373
2014-08-01T02:00:20.291Z,99370
2014-08-01T02:00:38.496Z,99376
2014-08-01T02:00:56.730Z,99370
2014-08-01T02:01:14.964Z,99382
2014-08-01T02:01:33.201Z,99379
2014-08-01T02:01:51.420Z,99376
2014-08-01T02:02:09.654Z,99376
2014-08-01T02:02:27.857Z,99370
2014-08-01T02:02:46.108Z,99370
2014-08-01T02:03:19.217Z,99373
2014-08-01T02:03:37.455Z,99376
2014-08-01T02:03:55.689Z,99379
2014-08-01T02:04:13.892Z,99376
2014-08-01T02:04:32.142Z,99376
2014-08-01T02:04:50.379Z,99376
2014-08-01T02:05:08.597Z,99382
2014-08-01T02:05:26.816Z,99379
2014-08-01T02:05:45.068Z,99370
2014-08-01T02:06:03.287Z,99382
2014-08-01T02:06:21.521Z,99376
2014-08-01T02:06:39.771Z,99379
2014-08-01T02:06:57.992Z,99370
2014-08-01T02:07:16.226Z,99376
2014-08-01T02:07:34.539Z,99370
2014-08-01T02:07:52.760Z,99367
2014-08-01T02:08:10.978Z,99370
2014-08-01T02:08:29.197Z,99370
2014-08-01T02:08:47.447Z,99370
2014-08-01T02:09:05.667Z,99373
2014-08-01T02:09:23.870Z,99379
2014-08-01T02:09:42.136Z,99370
2014-08-01T02:10:00.326Z,99376
2014-08-01T02:10:18.576Z,99382
2014-08-01T02:10:36.811Z,99370
2014-08-01T02:10:54.998Z,99370
2014-08-01T02:11:27.375Z,99367
2014-08-01T02:11:45.609Z,99367
2014-08-01T02:12:03.861Z,99361
2014-08-01T02:12:22.096Z,99376
2014-08-01T02:12:40.346Z,99367
2014-08-01T02:12:58.580Z,99370
2014-08-01T02:13:16.784Z,99364
2014-08-01T02:13:35.034Z,99367
2014-08-01T02:13:53.269Z,99364
2014-08-01T02:14:11.522Z,99361
2014-08-01T02:14:29.740Z,99367
2014-08-01T02:14:47.959Z,99376
2014-08-01T02:15:06.178Z,99373
2014-08-01T02:15:24.430Z,99370
2014-08-01T02:15:42.649Z,99367
2014-08-01T02:16:00.883Z,99370
2014-08-01T02:16:19.104Z,99376
2014-08-01T02:16:37.338Z,99370
2014-08-01T02:16:55.541Z,99370
2014-08-01T02:17:13.776Z,99367
2014-08-01T02:17:46.184Z,99370
2014-08-01T02:18:04.371Z,99370
2014-08-01T02:18:22.606Z,99370
2014-08-01T02:18:40.828Z,99379
2014-08-01T02:18:59.046Z,99370
2014-08-01T02:19:17.296Z,99376
2014-08-01T02:19:35.531Z,99379
2014-08-01T02:19:53.751Z,99367
2014-08-01T02:20:11.955Z,99367
2014-08-01T02:20:30.189Z,99370
2014-08-01T02:20:48.410Z,99367
2014-08-01T02:21:06.644Z,99370
2014-08-01T02:21:24.878Z,99370
2014-08-01T02:21:43.082Z,99367
2014-08-01T02:22:01.349Z,99370
2014-08-01T02:22:19.568Z,99367
2014-08-01T02:22:37.771Z,99364
2014-08-01T02:22:56.007Z,99364
2014-08-01T02:23:14.226Z,99370
2014-08-01T02:23:32.445Z,99370
2014-08-01T02:23:50.648Z,99367
2014-08-01T02:24:08.899Z,99364
2014-08-01T02:24:27.133Z,99364
2014-08-01T02:24:45.352Z,99364
2014-08-01T02:25:03.558Z,99359
2014-08-01T02:25:21.808Z,99367
2014-08-01T02:25:40.011Z,99370
2014-08-01T02:25:58.230Z,99364
2014-08-01T02:26:16.467Z,99376
2014-08-01T02:26:34.748Z,99367
2014-08-01T02:26:52.967Z,99370
2014-08-01T02:27:11.203Z,99370
2014-08-01T02:27:29.422Z,99367
2014-08-01T02:27:47.672Z,99356
2014-08-01T02:28:05.906Z,99362
2014-08-01T02:28:24.096Z,99364
2014-08-01T02:28:42.361Z,99367
2014-08-01T02:29:00.564Z,99367
2014-08-01T02:29:18.832Z,99370
2014-08-01T02:29:37.066Z,99370
2014-08-01T02:29:55.301Z,99367
2014-08-01T02:30:13.504Z,99367
2014-08-01T02:30:31.740Z,99364
2014-08-01T02:30:49.975Z,99362
2014-08-01T02:31:08.193Z,99370
2014-08-01T02:31:26.398Z,99370
2014-08-01T02:31:44.633Z,99370
2014-08-01T02:32:02.883Z,99367
2014-08-01T02:32:21.102Z,99373
2014-08-01T02:32:39.307Z,99367
2014-08-01T02:32:57.541Z,99359
2014-08-01T02:33:15.775Z,99359
2014-08-01T02:33:33.996Z,99353
2014-08-01T02:33:52.199Z,99362
2014-08-01T02:34:10.449Z,99376
2014-08-01T02:34:28.668Z,99376
2014-08-01T02:34:46.936Z,99373
2014-08-01T02:35:05.139Z,99373
2014-08-01T02:35:23.404Z,99367
2014-08-01T02:35:41.625Z,99367
2014-08-01T02:35:59.844Z,99373
2014-08-01T02:36:18.047Z,99367
2014-08-01T02:36:36.281Z,99364
2014-08-01T02:36:54.519Z,99370
2014-08-01T02:37:12.738Z,99362
2014-08-01T02:37:30.956Z,99370
2014-08-01T02:37:49.176Z,99367
2014-08-01T02:38:07.410Z,99367
2014-08-01T02:38:25.660Z,99364
2014-08-01T02:38:43.895Z,99359
2014-08-01T02:39:02.085Z,99370
2014-08-01T02:39:20.335Z,99362
2014-08-01T02:39:38.538Z,99359
2014-08-01T02:39:56.775Z,99364
2014-08-01T02:40:15.009Z,99362
2014-08-01T02:40:33.244Z,99359
2014-08-01T02:40:51.462Z,99362
2014-08-01T02:41:09.666Z,99376
2014-08-01T02:41:27.916Z,99367
2014-08-01T02:41:46.151Z,99364
2014-08-01T02:42:04.387Z,99364
2014-08-01T02:42:22.606Z,99356
2014-08-01T02:42:40.825Z,99364
2014-08-01T02:42:59.059Z,99362
2014-08-01T02:43:17.281Z,99359
2014-08-01T02:43:35.484Z,99367
2014-08-01T02:43:53.703Z,99365
2014-08-01T02:44:11.955Z,99359
2014-08-01T02:44:45.095Z,99370
2014-08-01T02:45:03.298Z,99367
2014-08-01T02:45:21.550Z,99367
2014-08-01T02:45:39.754Z,99367
2014-08-01T02:45:58.004Z,99359
2014-08-01T02:46:16.222Z,99367
2014-08-01T02:46:34.443Z,99373
2014-08-01T02:46:52.662Z,99359
2014-08-01T02:47:10.896Z,99362
2014-08-01T02:47:29.133Z,99356
2014-08-01T02:47:47.336Z,99365
2014-08-01T02:48:05.570Z,99362
2014-08-01T02:48:23.789Z,99365
2014-08-01T02:48:42.150Z,99367
2014-08-01T02:49:00.353Z,99365
2014-08-01T02:49:18.572Z,99359
2014-08-01T02:49:36.808Z,99353
2014-08-01T02:49:55.027Z,99367
2014-08-01T02:50:13.277Z,99365
2014-08-01T02:50:31.465Z,99362
2014-08-01T02:50:49.701Z,99365
2014-08-01T02:51:07.951Z,99362
2014-08-01T02:51:26.154Z,99367
2014-08-01T02:51:44.391Z,99365
2014-08-01T02:52:02.641Z,99362
2014-08-01T02:52:20.859Z,99356
2014-08-01T02:52:39.031Z,99356
2014-08-01T02:52:57.268Z,99365
2014-08-01T02:53:15.518Z,99356
2014-08-01T02:53:33.752Z,99362
2014-08-01T02:53:51.957Z,99353
2014-08-01T02:54:10.191Z,99356
2014-08-01T02:54:28.426Z,99365
2014-08-01T02:54:46.660Z,99356
2014-08-01T02:55:04.850Z,99359
2014-08-01T02:55:23.068Z,99347
2014-08-01T02:55:41.303Z,99359
2014-08-01T02:55:59.539Z,99353
2014-08-01T02:56:17.742Z,99356
2014-08-01T02:56:50.164Z,99353
2014-08-01T02:57:08.370Z,99347
2014-08-01T02:57:26.605Z,99350
2014-08-01T02:57:44.808Z,99362
2014-08-01T02:58:03.042Z,99347
2014-08-01T02:58:21.263Z,99347
2014-08-01T02:58:39.513Z,99356
2014-08-01T02:58:57.732Z,99353
2014-08-01T02:59:15.952Z,99350
2014-08-01T02:59:34.202Z,99350
2014-08-01T02:59:52.437Z,99350
2014-08-01T03:00:10.640Z,99356
2014-08-01T03:00:28.907Z,99350
2014-08-01T03:00:47.125Z,99350
2014-08-01T03:01:05.344Z,99347
2014-08-01T03:01:23.550Z,99341
2014-08-01T03:01:41.769Z,99356
2014-08-01T03:02:00.019Z,99341
2014-08-01T03:02:18.222Z,99347
2014-08-01T03:02:36.442Z,99347
2014-08-01T03:02:54.692Z,99353
2014-08-01T03:03:12.911Z,99350
2014-08-01T03:03:31.157Z,99350
2014-08-01T03:03:49.360Z,99356
2014-08-01T03:04:07.579Z,99347
2014-08-01T03:04:25.829Z,99350
2014-08-01T03:04:44.102Z,99356
2014-08-01T03:05:02.321Z,99347
2014-08-01T03:05:20.555Z,99347
2014-08-01T03:05:38.803Z,99353
2014-08-01T03:05:57.022Z,99356
2014-08-01T03:06:15.241Z,99356
2014-08-01T03:06:33.491Z,99353
2014-08-01T03:06:51.735Z,99356
2014-08-01T03:07:10.032Z,99350
2014-08-01T03:07:28.219Z,99341
2014-08-01T03:07:46.498Z,99338
2014-08-01T03:08:04.763Z,99341
2014-08-01T03:08:22.998Z,99341
2014-08-01T03:08:41.232Z,99344
2014-08-01T03:08:59.464Z,99344
2014-08-01T03:09:17.730Z,99336
2014-08-01T03:09:35.933Z,99338
2014-08-01T03:09:54.184Z,99350
2014-08-01T03:10:12.419Z,99330
2014-08-01T03:10:30.638Z,99341
2014-08-01T03:10:48.841Z,99330
2014-08-01T03:11:07.091Z,99333
2014-08-01T03:11:25.341Z,99339
2014-08-01T03:11:43.575Z,99338
2014-08-01T03:12:01.810Z,99333
2014-08-01T03:12:19.998Z,99339
2014-08-01T03:12:38.248Z,99341
2014-08-01T03:12:56.482Z,99333
2014-08-01T03:13:14.701Z,99336
2014-08-01T03:13:32.936Z,99344
2014-08-01T03:13:51.248Z,99333
2014-08-01T03:14:09.508Z,99336
2014-08-01T03:14:27.727Z,99333
2014-08-01T03:14:45.930Z,99339
2014-08-01T03:15:04.180Z,99339
2014-08-01T03:15:22.405Z,99333
2014-08-01T03:15:40.608Z,99339
2014-08-01T03:15:58.842Z,99330
2014-08-01T03:16:17.085Z,99333
2014-08-01T03:16:35.319Z,99339
2014-08-01T03:16:53.538Z,99336
2014-08-01T03:17:11.756Z,99327
2014-08-01T03:17:44.140Z,99339
2014-08-01T03:18:02.390Z,99336
2014-08-01T03:18:20.609Z,99333
2014-08-01T03:18:38.835Z,99336
2014-08-01T03:18:57.038Z,99333
2014-08-01T03:19:15.272Z,99333
2014-08-01T03:19:33.476Z,99336
2014-08-01T03:19:51.714Z,99339
2014-08-01T03:20:09.933Z,99333
2014-08-01T03:20:28.151Z,99339
2014-08-01T03:20:46.405Z,99339
2014-08-01T03:21:04.609Z,99344
2014-08-01T03:21:22.859Z,99336
2014-08-01T03:21:41.077Z,99341
2014-08-01T03:21:59.299Z,99347
2014-08-01T03:22:17.502Z,99330
2014-08-01T03:22:35.737Z,99333
2014-08-01T03:22:53.976Z,99336
2014-08-01T03:23:12.195Z,99339
2014-08-01T03:23:30.445Z,99339
2014-08-01T03:23:48.663Z,99341
2014-08-01T03:24:06.885Z,99344
2014-08-01T03:24:25.120Z,99336
2014-08-01T03:24:43.370Z,99333
2014-08-01T03:25:01.606Z,99333
2014-08-01T03:25:19.809Z,99339
2014-08-01T03:25:38.059Z,99344
2014-08-01T03:25:56.262Z,99341
2014-08-01T03:26:14.484Z,99333
2014-08-01T03:26:32.781Z,99336
2014-08-01T03:26:51.000Z,99333
2014-08-01T03:27:09.237Z,99333
2014-08-01T03:27:27.440Z,99339
2014-08-01T03:27:45.659Z,99344
2014-08-01T03:28:03.924Z,99336
2014-08-01T03:28:22.145Z,99327
2014-08-01T03:28:40.364Z,99336
2014-08-01T03:28:58.567Z,99327
2014-08-01T03:29:16.851Z,99341
2014-08-01T03:29:35.070Z,99333
2014-08-01T03:29:53.304Z,99322
2014-08-01T03:30:11.539Z,99339
2014-08-01T03:30:29.759Z,99339
2014-08-01T03:30:47.993Z,99333
2014-08-01T03:31:06.196Z,99333
2014-08-01T03:31:24.434Z,99333
2014-08-01T03:31:42.653Z,99330
2014-08-01T03:32:00.872Z,99336
2014-08-01T03:32:19.138Z,99336
2014-08-01T03:32:37.358Z,99336
2014-08-01T03:32:55.546Z,99336
2014-08-01T03:33:13.811Z,99333
2014-08-01T03:33:32.032Z,99327
2014-08-01T03:33:50.235Z,99330
2014-08-01T03:34:08.454Z,99330
2014-08-01T03:34:26.704Z,99330
2014-08-01T03:34:44.925Z,99339
2014-08-01T03:35:03.128Z,99325
2014-08-01T03:35:21.347Z,99325
2014-08-01T03:35:39.614Z,99333
2014-08-01T03:35:57.833Z,99327
2014-08-01T03:36:16.052Z,99327
2014-08-01T03:36:34.271Z,99339
2014-08-01T03:36:52.507Z,99336
2014-08-01T03:37:10.741Z,99341
2014-08-01T03:37:28.944Z,99333
2014-08-01T03:37:47.165Z,99339
2014-08-01T03:38:05.415Z,99341
2014-08-01T03:38:23.634Z,99333
2014-08-01T03:38:41.837Z,99333
2014-08-01T03:39:00.058Z,99333
2014-08-01T03:39:18.402Z,99336
2014-08-01T03:39:36.620Z,99341
2014-08-01T03:39:54.825Z,99336
2014-08-01T03:40:13.060Z,99336
2014-08-01T03:40:31.279Z,99336
2014-08-01T03:40:49.529Z,99330
2014-08-01T03:41:07.735Z,99333
2014-08-01T03:41:25.969Z,99341
2014-08-01T03:41:44.188Z,99327
2014-08-01T03:42:02.423Z,99327
2014-08-01T03:42:20.626Z,99333
2014-08-01T03:42:38.845Z,99339
2014-08-01T03:42:57.111Z,99344
2014-08-01T03:43:15.332Z,99333
2014-08-01T03:43:33.536Z,99330
2014-08-01T03:44:05.943Z,99330
2014-08-01T03:44:24.146Z,99333
2014-08-01T03:44:42.380Z,99339
2014-08-01T03:45:00.583Z,99327
2014-08-01T03:45:18.820Z,99336
2014-08-01T03:45:37.054Z,99327
2014-08-01T03:45:55.304Z,99333
2014-08-01T03:46:13.526Z,99333
2014-08-01T03:46:31.729Z,99325
2014-08-01T03:47:04.104Z,99339
2014-08-01T03:47:22.372Z,99325
2014-08-01T03:47:40.622Z,99327
2014-08-01T03:47:58.840Z,99333
2014-08-01T03:48:17.028Z,99333
2014-08-01T03:48:35.263Z,99333
2014-08-01T03:48:53.513Z,99330
2014-08-01T03:49:11.748Z,99333
2014-08-01T03:49:29.954Z,99327
2014-08-01T03:49:48.188Z,99322
2014-08-01T03:50:06.423Z,99327
2014-08-01T03:50:24.657Z,99327
2014-08-01T03:50:42.845Z,99336
2014-08-01T03:51:01.064Z,99327
2014-08-01T03:51:19.314Z,99325
2014-08-01T03:51:37.536Z,99322
2014-08-01T03:52:10.692Z,99333
2014-08-01T03:52:28.911Z,99325
2014-08-01T03:52:47.116Z,99327
2014-08-01T03:53:05.366Z,99325
2014-08-01T03:53:23.569Z,99327
2014-08-01T03:53:41.804Z,99330
2014-08-01T03:54:00.024Z,99336
2014-08-01T03:54:18.274Z,99327
2014-08-01T03:54:36.524Z,99322
2014-08-01T03:54:54.745Z,99327
2014-08-01T03:55:12.995Z,99322
2014-08-01T03:55:31.198Z,99325
2014-08-01T03:55:49.417Z,99316
2014-08-01T03:56:07.653Z,99330
2014-08-01T03:56:25.888Z,99319
2014-08-01T03:56:44.106Z,99327
2014-08-01T03:57:02.327Z,99319
2014-08-01T03:57:20.577Z,99327
2014-08-01T03:57:38.765Z,99325
2014-08-01T03:57:57.015Z,99330
2014-08-01T03:58:15.251Z,99325
2014-08-01T03:59:05.831Z,99322
2014-08-01T03:59:24.066Z,99322
2014-08-01T03:59:42.300Z,99330
2014-08-01T04:00:00.534Z,99327